createdAt,value
2023-05-14T00:01:53.840Z,17.70
2023-05-14T00:04:20.831Z,26.90
2023-05-14T00:06:47.659Z,25.95
2023-05-14T00:09:14.429Z,22.10
2023-05-14T00:11:41.217Z,18.98
2023-05-14T00:14:08.189Z,25.20
2023-05-14T00:16:35.124Z,24.23
2023-05-14T00:19:02.027Z,24.52
2023-05-14T00:21:28.949Z,21.88
2023-05-14T00:23:55.736Z,21.38
2023-05-14T00:26:22.763Z,21.73
2023-05-14T00:28:49.818Z,24.10
2023-05-14T00:31:16.725Z,22.15
2023-05-14T00:33:43.626Z,17.33
2023-05-14T00:36:10.400Z,21.98
2023-05-14T00:38:37.375Z,19.95
2023-05-14T00:41:04.367Z,22.35
2023-05-14T00:43:33.188Z,18.60
2023-05-14T00:46:00.435Z,23.55
2023-05-14T00:48:27.555Z,21.33
2023-05-14T00:50:54.980Z,18.50
2023-05-14T00:53:22.083Z,21.65
2023-05-14T00:55:50.054Z,22.40
2023-05-14T00:58:18.978Z,26.65
2023-05-14T01:00:45.930Z,22.45
2023-05-14T01:03:13.161Z,23.98
2023-05-14T01:06:03.642Z,23.20
2023-05-14T01:08:52.343Z,22.95
2023-05-14T01:11:29.107Z,22.77
2023-05-14T01:14:16.599Z,22.77
2023-05-14T01:16:45.625Z,19.45
2023-05-14T01:19:33.655Z,23.85
2023-05-14T01:22:00.480Z,24.10
2023-05-14T01:24:27.720Z,24.20
2023-05-14T01:27:01.207Z,23.92
2023-05-14T01:29:31.084Z,26.90
2023-05-14T01:31:59.703Z,23.27
2023-05-14T01:34:28.552Z,24.17
2023-05-14T01:36:56.794Z,25.83
2023-05-14T01:39:25.084Z,26.70
2023-05-14T01:41:53.426Z,30.30
2023-05-14T01:44:21.584Z,23.83
2023-05-14T01:46:48.378Z,28.08
2023-05-14T01:49:16.201Z,21.42
2023-05-14T01:51:43.035Z,24.55
2023-05-14T01:54:09.869Z,24.20
2023-05-14T01:56:36.724Z,26.75
2023-05-14T01:59:03.482Z,27.55
2023-05-14T02:01:30.452Z,28.80
2023-05-14T02:04:01.339Z,23.90
2023-05-14T02:06:28.415Z,23.95
2023-05-14T02:08:55.240Z,35.15
2023-05-14T02:11:22.552Z,25.75
2023-05-14T02:13:49.405Z,30.38
2023-05-14T02:16:16.366Z,34.50
2023-05-14T02:18:43.242Z,23.95
2023-05-14T02:21:10.314Z,31.25
2023-05-14T02:23:41.586Z,29.05
2023-05-14T02:26:10.289Z,28.60
2023-05-14T02:28:37.185Z,29.40
2023-05-14T02:31:04.953Z,27.00
2023-05-14T02:33:31.846Z,27.58
2023-05-14T02:35:59.032Z,33.35
2023-05-14T02:38:26.805Z,24.38
2023-05-14T02:40:53.672Z,27.63
2023-05-14T02:43:20.421Z,25.35
2023-05-14T02:45:47.553Z,25.60
2023-05-14T02:48:14.646Z,25.80
2023-05-14T02:50:41.650Z,25.40
2023-05-14T02:53:08.811Z,26.52
2023-05-14T02:55:36.263Z,28.10
2023-05-14T02:58:03.164Z,30.27
2023-05-14T03:00:30.040Z,28.58
2023-05-14T03:02:57.298Z,27.75
2023-05-14T03:05:24.794Z,27.42
2023-05-14T03:07:53.758Z,29.90
2023-05-14T03:10:21.024Z,28.45
2023-05-14T03:12:48.236Z,25.45
2023-05-14T03:15:15.188Z,31.25
2023-05-14T03:17:42.026Z,27.92
2023-05-14T03:20:09.199Z,27.27
2023-05-14T03:22:36.185Z,29.17
2023-05-14T03:25:02.988Z,25.80
2023-05-14T03:27:29.766Z,25.67
2023-05-14T03:29:56.572Z,24.42
2023-05-14T03:32:23.401Z,26.67
2023-05-14T03:34:50.284Z,29.73
2023-05-14T03:37:17.062Z,25.63
2023-05-14T03:39:43.875Z,26.52
2023-05-14T03:42:10.829Z,24.95
2023-05-14T03:44:37.861Z,29.70
2023-05-14T03:47:04.951Z,27.02
2023-05-14T03:49:32.062Z,26.20
2023-05-14T03:51:59.562Z,25.20
2023-05-14T03:54:27.042Z,29.83
2023-05-14T03:56:53.846Z,30.13
2023-05-14T03:59:20.619Z,29.63
2023-05-14T04:01:47.699Z,24.15
2023-05-14T04:04:14.653Z,29.23
2023-05-14T04:06:41.638Z,25.05
2023-05-14T04:09:08.443Z,24.50
2023-05-14T04:11:35.513Z,27.25
2023-05-14T04:14:04.820Z,26.65
2023-05-14T04:16:31.697Z,29.40
2023-05-14T04:18:58.823Z,25.83
2023-05-14T04:21:25.701Z,23.35
2023-05-14T04:23:52.680Z,24.92
2023-05-14T04:26:19.558Z,24.23
2023-05-14T04:28:46.315Z,32.65
2023-05-14T04:31:13.376Z,21.98
2023-05-14T04:33:40.198Z,27.17
2023-05-14T04:36:07.332Z,25.02
2023-05-14T04:38:34.678Z,32.45
2023-05-14T04:41:02.131Z,24.02
2023-05-14T04:43:29.045Z,20.17
2023-05-14T04:45:56.444Z,28.58
2023-05-14T04:48:23.341Z,24.75
2023-05-14T04:50:50.194Z,26.48
2023-05-14T04:53:17.082Z,22.65
2023-05-14T04:55:43.820Z,25.20
2023-05-14T04:58:10.740Z,24.90
2023-05-14T05:00:37.685Z,19.23
2023-05-14T05:03:04.759Z,22.58
2023-05-14T05:05:31.772Z,23.65
2023-05-14T05:07:58.586Z,20.20
2023-05-14T05:10:25.899Z,20.85
2023-05-14T05:12:53.005Z,26.02
2023-05-14T05:15:19.909Z,18.38
2023-05-14T05:17:47.011Z,23.40
2023-05-14T05:20:13.913Z,27.10
2023-05-14T05:22:48.530Z,23.27
2023-05-14T05:25:15.640Z,23.27
2023-05-14T05:27:42.436Z,21.55
2023-05-14T05:30:09.644Z,22.88
2023-05-14T05:32:36.810Z,22.00
2023-05-14T05:35:03.784Z,23.23
2023-05-14T05:37:31.008Z,23.30
2023-05-14T05:39:57.796Z,29.40
2023-05-14T05:42:24.839Z,17.08
2023-05-14T05:44:51.781Z,19.75
2023-05-14T05:47:18.583Z,22.27
2023-05-14T05:49:45.461Z,26.13
2023-05-14T05:52:12.275Z,16.23
2023-05-14T05:54:39.910Z,20.05
2023-05-14T05:57:06.834Z,19.38
2023-05-14T05:59:33.888Z,17.33
2023-05-14T06:02:03.633Z,17.92
2023-05-14T06:04:30.598Z,19.88
2023-05-14T06:06:57.367Z,21.48
2023-05-14T06:09:24.155Z,18.70
2023-05-14T06:11:51.090Z,16.77
2023-05-14T06:14:18.043Z,20.58
2023-05-14T06:16:45.123Z,17.02
2023-05-14T06:19:12.332Z,17.25
2023-05-14T06:21:39.328Z,14.52
2023-05-14T06:24:06.586Z,18.05
2023-05-14T06:26:33.372Z,21.05
2023-05-14T06:29:00.449Z,17.38
2023-05-14T06:31:27.303Z,15.88
2023-05-14T06:33:54.215Z,32.95
2023-05-14T06:36:21.004Z,20.05
2023-05-14T06:38:47.821Z,17.23
2023-05-14T06:41:14.658Z,22.80
2023-05-14T06:43:41.636Z,23.50
2023-05-14T06:46:08.423Z,18.52
2023-05-14T06:48:35.528Z,17.50
2023-05-14T06:51:03.389Z,15.52
2023-05-14T06:53:30.662Z,22.00
2023-05-14T06:55:57.487Z,14.50
2023-05-14T06:58:24.339Z,17.85
2023-05-14T07:00:51.161Z,14.65
2023-05-14T07:03:18.012Z,17.58
2023-05-14T07:05:46.752Z,22.33
2023-05-14T07:08:13.814Z,27.73
2023-05-14T07:10:40.877Z,20.15
2023-05-14T07:13:08.371Z,27.80
2023-05-14T07:15:35.280Z,14.02
2023-05-14T07:18:02.196Z,15.98
2023-05-14T07:20:29.309Z,18.45
2023-05-14T07:22:56.290Z,20.83
2023-05-14T07:25:23.115Z,18.38
2023-05-14T07:27:49.965Z,13.45
2023-05-14T07:30:16.891Z,18.33
2023-05-14T07:32:43.941Z,13.20
2023-05-14T07:35:11.938Z,16.13
2023-05-14T07:37:39.053Z,15.00
2023-05-14T07:40:06.578Z,16.27
2023-05-14T07:42:36.925Z,15.57
2023-05-14T07:45:05.314Z,12.75
2023-05-14T07:47:32.808Z,14.63
2023-05-14T07:50:02.578Z,10.52
2023-05-14T07:52:29.835Z,10.57
2023-05-14T07:54:56.721Z,12.63
2023-05-14T07:57:23.924Z,15.75
2023-05-14T07:59:51.516Z,16.30
2023-05-14T08:02:18.676Z,16.45
2023-05-14T08:04:45.936Z,18.50
2023-05-14T08:07:12.882Z,11.50
2023-05-14T08:09:40.308Z,11.38
2023-05-14T08:12:07.657Z,13.45
2023-05-14T08:14:34.990Z,9.00
2023-05-14T08:17:02.225Z,13.50
2023-05-14T08:19:29.658Z,11.63
2023-05-14T08:21:56.577Z,11.52
2023-05-14T08:24:23.448Z,10.93
2023-05-14T08:26:50.526Z,9.65
2023-05-14T08:29:17.274Z,10.77
2023-05-14T08:31:44.295Z,11.85
2023-05-14T08:34:11.188Z,12.63
2023-05-14T08:36:39.371Z,7.45
2023-05-14T08:39:07.883Z,9.10
2023-05-14T08:41:35.341Z,15.50
2023-05-14T08:44:28.193Z,11.82
2023-05-14T08:46:55.324Z,11.80
2023-05-14T08:49:32.980Z,9.85
2023-05-14T08:52:00.518Z,10.02
2023-05-14T08:54:29.001Z,11.45
2023-05-14T08:56:59.795Z,15.50
2023-05-14T08:59:26.908Z,11.70
2023-05-14T09:01:55.093Z,8.18
2023-05-14T09:04:23.715Z,10.98
2023-05-14T09:06:53.657Z,8.05
2023-05-14T09:09:23.960Z,18.50
2023-05-14T09:11:52.981Z,24.45
2023-05-14T09:14:20.587Z,9.90
2023-05-14T09:16:49.860Z,13.98
2023-05-14T09:19:19.407Z,11.50
2023-05-14T09:21:48.357Z,7.15
2023-05-14T09:24:52.816Z,9.50
2023-05-14T09:27:20.977Z,7.63
2023-05-14T09:29:48.657Z,13.07
2023-05-14T09:32:15.692Z,8.57
2023-05-14T09:34:42.484Z,8.70
2023-05-14T09:37:09.997Z,15.75
2023-05-14T09:39:38.090Z,14.48
2023-05-14T09:42:05.513Z,13.38
2023-05-14T09:44:36.417Z,11.15
2023-05-14T09:47:05.456Z,9.13
2023-05-14T09:49:32.582Z,11.70
2023-05-14T09:52:00.970Z,7.45
2023-05-14T09:54:28.343Z,11.57
2023-05-14T09:56:55.973Z,11.90
2023-05-14T09:59:22.891Z,11.50
2023-05-14T10:01:51.472Z,9.73
2023-05-14T10:04:19.646Z,12.15
2023-05-14T10:06:51.843Z,10.90
2023-05-14T10:09:28.808Z,8.50
2023-05-14T10:12:01.308Z,10.65
2023-05-14T10:14:36.163Z,8.00
2023-05-14T10:17:05.074Z,8.52
2023-05-14T10:19:35.323Z,15.00
2023-05-14T10:22:10.295Z,8.82
2023-05-14T10:24:39.226Z,10.95
2023-05-14T10:27:09.193Z,9.82
2023-05-14T10:29:38.164Z,6.53
2023-05-14T10:32:09.155Z,13.75
2023-05-14T10:34:52.671Z,10.02
2023-05-14T10:37:23.638Z,7.35
2023-05-14T10:39:58.273Z,9.18
2023-05-14T10:42:37.512Z,9.65
2023-05-14T10:45:07.738Z,11.05
2023-05-14T10:47:45.931Z,9.10
2023-05-14T10:50:15.292Z,7.90
2023-05-14T10:52:44.004Z,6.10
2023-05-14T10:55:14.635Z,8.27
2023-05-14T10:57:44.384Z,15.73
2023-05-14T11:00:13.030Z,9.30
2023-05-14T11:02:42.228Z,6.78
2023-05-14T11:05:16.065Z,6.40
2023-05-14T11:07:48.136Z,8.52
2023-05-14T11:10:19.623Z,6.35
2023-05-14T11:12:51.095Z,9.13
2023-05-14T11:15:20.637Z,5.22
2023-05-14T11:17:49.089Z,8.43
2023-05-14T11:20:18.162Z,10.48
2023-05-14T11:22:46.888Z,9.38
2023-05-14T11:25:14.840Z,9.65
2023-05-14T11:27:44.462Z,12.40
2023-05-14T11:30:20.643Z,9.10
2023-05-14T11:32:49.335Z,9.32
2023-05-14T11:35:17.445Z,11.68
2023-05-14T11:37:50.338Z,9.50
2023-05-14T11:40:18.367Z,11.23
2023-05-14T11:42:45.848Z,12.07
2023-05-14T11:45:14.373Z,7.80
2023-05-14T11:47:42.251Z,9.10
2023-05-14T11:50:09.929Z,6.53
2023-05-14T11:52:41.201Z,6.90
2023-05-14T11:55:12.261Z,10.18
2023-05-14T11:57:39.335Z,8.63
2023-05-14T12:00:16.696Z,14.32
2023-05-14T12:02:43.823Z,9.73
2023-05-14T12:05:13.148Z,14.55
2023-05-14T12:07:40.188Z,9.95
2023-05-14T12:10:07.707Z,6.20
2023-05-14T12:12:38.910Z,9.30
2023-05-14T12:15:17.068Z,7.22
2023-05-14T12:17:50.751Z,8.50
2023-05-14T12:20:17.890Z,7.43
2023-05-14T12:22:44.664Z,8.73
2023-05-14T12:25:16.242Z,10.45
2023-05-14T12:27:45.355Z,10.93
2023-05-14T12:30:21.277Z,10.32
2023-05-14T12:32:52.087Z,9.80
2023-05-14T12:35:19.164Z,9.55
2023-05-14T12:37:46.092Z,8.98
2023-05-14T12:40:13.252Z,10.13
2023-05-14T12:42:40.238Z,10.50
2023-05-14T12:45:08.718Z,9.77
2023-05-14T12:47:37.076Z,7.60
2023-05-14T12:50:05.980Z,7.90
2023-05-14T12:52:38.290Z,11.52
2023-05-14T12:55:09.339Z,11.18
2023-05-14T12:57:38.359Z,9.32
2023-05-14T13:00:09.881Z,8.52
2023-05-14T13:02:43.192Z,8.50
2023-05-14T13:05:11.537Z,7.63
2023-05-14T13:07:38.892Z,5.25
2023-05-14T13:10:06.666Z,6.22
2023-05-14T13:12:33.634Z,7.65
2023-05-14T13:15:00.585Z,10.82
2023-05-14T13:17:27.705Z,7.60
2023-05-14T13:19:54.584Z,10.25
2023-05-14T13:22:21.477Z,6.43
2023-05-14T13:24:48.267Z,12.70
2023-05-14T13:27:15.224Z,7.18
2023-05-14T13:29:42.373Z,9.70
2023-05-14T13:32:09.272Z,7.05
2023-05-14T13:34:36.461Z,9.90
2023-05-14T13:37:04.044Z,12.48
2023-05-14T13:39:31.144Z,7.53
2023-05-14T13:41:58.224Z,8.25
2023-05-14T13:44:25.213Z,8.32
2023-05-14T13:46:52.472Z,10.70
2023-05-14T13:49:19.589Z,8.70
2023-05-14T13:51:46.470Z,12.70
2023-05-14T13:54:13.407Z,11.65
2023-05-14T13:56:40.518Z,9.07
2023-05-14T13:59:07.579Z,13.25
2023-05-14T14:01:34.540Z,12.45
2023-05-14T14:04:01.525Z,7.70
2023-05-14T14:06:30.886Z,12.27
2023-05-14T14:08:58.018Z,11.32
2023-05-14T14:11:31.137Z,9.05
2023-05-14T14:13:58.155Z,9.63
2023-05-14T14:16:26.562Z,7.80
2023-05-14T14:18:53.512Z,8.77
2023-05-14T14:21:21.260Z,11.77
2023-05-14T14:23:49.679Z,14.80
2023-05-14T14:26:16.596Z,14.75
2023-05-14T14:28:48.061Z,8.55
2023-05-14T14:31:16.412Z,8.75
2023-05-14T14:33:46.713Z,9.18
2023-05-14T14:36:13.662Z,8.80
2023-05-14T14:38:42.752Z,12.18
2023-05-14T14:41:10.434Z,10.73
2023-05-14T14:43:38.572Z,10.52
2023-05-14T14:46:06.003Z,16.60
2023-05-14T14:48:37.668Z,12.82
2023-05-14T14:51:06.260Z,10.18
2023-05-14T14:53:34.559Z,7.40
2023-05-14T14:56:02.070Z,11.98
2023-05-14T14:58:31.241Z,7.55
2023-05-14T15:00:58.790Z,8.38
2023-05-14T15:03:26.082Z,13.95
2023-05-14T15:05:53.853Z,8.30
2023-05-14T15:08:24.753Z,13.80
2023-05-14T15:10:51.651Z,6.88
2023-05-14T15:13:19.199Z,10.27
2023-05-14T15:15:46.019Z,9.30
2023-05-14T15:18:13.421Z,6.47
2023-05-14T15:20:40.513Z,6.78
2023-05-14T15:23:07.771Z,8.73
2023-05-14T15:25:40.756Z,11.30
2023-05-14T15:28:07.946Z,13.80
2023-05-14T15:30:35.225Z,10.30
2023-05-14T15:33:02.221Z,6.25
2023-05-14T15:35:29.089Z,7.40
2023-05-14T15:37:59.072Z,6.00
2023-05-14T15:40:27.668Z,9.45
2023-05-14T15:42:54.891Z,12.02
2023-05-14T15:45:22.006Z,9.20
2023-05-14T15:47:48.984Z,8.38
2023-05-14T15:50:16.148Z,12.07
2023-05-14T15:52:44.910Z,11.68
2023-05-14T15:55:12.396Z,11.27
2023-05-14T15:57:39.429Z,12.23
2023-05-14T16:00:13.031Z,7.50
2023-05-14T16:02:40.585Z,16.35
2023-05-14T16:05:08.698Z,10.18
2023-05-14T16:07:36.670Z,11.02
2023-05-14T16:10:04.179Z,7.35
2023-05-14T16:12:31.763Z,15.07
2023-05-14T16:14:58.717Z,13.63
2023-05-14T16:17:26.794Z,8.52
2023-05-14T16:19:56.333Z,8.55
2023-05-14T16:22:23.762Z,23.33
2023-05-14T16:24:50.972Z,14.82
2023-05-14T16:27:19.277Z,9.30
2023-05-14T16:29:46.295Z,12.68
2023-05-14T16:32:13.510Z,7.93
2023-05-14T16:34:40.784Z,12.60
2023-05-14T16:37:08.232Z,13.10
2023-05-14T16:39:36.094Z,8.13
2023-05-14T16:42:11.786Z,6.13
2023-05-14T16:44:39.756Z,9.32
2023-05-14T16:47:07.489Z,15.25
2023-05-14T16:49:34.372Z,14.98
2023-05-14T16:52:01.242Z,9.60
2023-05-14T16:54:28.074Z,12.85
2023-05-14T16:56:54.983Z,15.93
2023-05-14T16:59:23.060Z,10.65
2023-05-14T17:01:51.290Z,8.73
2023-05-14T17:04:21.992Z,13.68
2023-05-14T17:06:49.276Z,10.45
2023-05-14T17:09:19.335Z,15.15
2023-05-14T17:11:46.251Z,19.75
2023-05-14T17:14:13.832Z,14.02
2023-05-14T17:16:43.322Z,16.25
2023-05-14T17:19:19.365Z,10.63
2023-05-14T17:22:02.624Z,11.98
2023-05-14T17:24:29.562Z,16.90
2023-05-14T17:27:00.224Z,22.00
2023-05-14T17:29:27.267Z,13.85
2023-05-14T17:31:58.171Z,13.80
2023-05-14T17:37:22.777Z,13.75
2023-05-14T17:39:57.659Z,14.18
2023-05-14T17:42:24.887Z,15.52
2023-05-14T17:44:54.609Z,16.70
2023-05-14T17:47:23.322Z,13.95
2023-05-14T17:49:53.893Z,10.75
2023-05-14T17:52:21.794Z,15.48
2023-05-14T17:54:50.412Z,13.95
2023-05-14T17:57:19.334Z,17.75
2023-05-14T17:59:59.630Z,12.40
2023-05-14T18:02:34.326Z,16.35
2023-05-14T18:05:03.809Z,16.63
2023-05-14T18:07:35.399Z,17.50
2023-05-14T18:10:06.408Z,14.65
2023-05-14T18:12:36.141Z,14.80
2023-05-14T18:15:03.155Z,11.27
2023-05-14T18:17:30.001Z,12.30
2023-05-14T18:19:57.087Z,11.88
2023-05-14T18:22:26.350Z,14.10
2023-05-14T18:24:55.071Z,16.35
2023-05-14T18:27:23.797Z,15.45
2023-05-14T18:29:57.437Z,18.20
2023-05-14T18:32:45.911Z,15.98
2023-05-14T18:35:16.527Z,19.08
2023-05-14T18:37:44.641Z,13.50
2023-05-14T18:53:59.402Z,14.25
2023-05-14T18:56:29.705Z,15.00
2023-05-14T18:59:00.028Z,15.00
2023-05-14T19:01:34.552Z,12.90
2023-05-14T19:04:05.626Z,18.58
2023-05-14T19:06:33.059Z,18.15
2023-05-14T19:09:00.829Z,13.15
2023-05-14T19:11:27.814Z,12.30
2023-05-14T19:13:54.762Z,17.38
2023-05-14T19:16:21.912Z,22.83
2023-05-14T19:18:49.208Z,14.82
2023-05-14T19:21:16.312Z,14.40
2023-05-14T19:23:43.341Z,14.32
2023-05-14T19:26:10.195Z,15.35
2023-05-14T19:28:42.705Z,11.82
2023-05-14T19:31:09.593Z,14.73
2023-05-14T19:33:39.240Z,14.73
2023-05-14T19:36:06.448Z,10.98
2023-05-14T19:38:49.349Z,10.52
2023-05-14T19:41:16.383Z,16.73
2023-05-14T19:43:43.384Z,17.27
2023-05-14T19:46:13.990Z,14.30
2023-05-14T19:48:48.913Z,18.38
2023-05-14T19:51:15.916Z,10.73
2023-05-14T19:53:42.890Z,15.27
2023-05-14T19:56:09.819Z,12.10
2023-05-14T19:58:36.687Z,12.13
2023-05-14T20:01:07.431Z,19.25
2023-05-14T20:03:34.791Z,12.10
2023-05-14T20:06:02.073Z,14.43
2023-05-14T20:08:29.319Z,16.00
2023-05-14T20:10:56.577Z,19.52
2023-05-14T20:13:25.234Z,13.63
2023-05-14T20:15:52.496Z,9.50
2023-05-14T20:18:19.436Z,13.20
2023-05-14T20:20:46.925Z,7.90
2023-05-14T20:23:13.898Z,18.65
2023-05-14T20:28:26.111Z,14.55
2023-05-14T20:33:30.758Z,16.25
2023-05-14T20:35:57.727Z,12.57
2023-05-14T20:38:25.715Z,14.50
2023-05-14T20:40:52.645Z,13.77
2023-05-14T20:43:19.569Z,13.82
2023-05-14T20:45:46.466Z,14.27
2023-05-14T20:48:16.444Z,15.93
2023-05-14T20:50:44.580Z,13.43
2023-05-14T20:53:11.490Z,14.35
2023-05-14T20:55:39.624Z,10.32
2023-05-14T20:58:06.515Z,11.60
2023-05-14T21:00:33.407Z,11.52
2023-05-14T21:03:00.530Z,15.15
2023-05-14T21:05:27.735Z,17.90
2023-05-14T21:07:54.687Z,16.88
2023-05-14T21:10:21.678Z,13.82
2023-05-14T21:12:48.536Z,10.43
2023-05-14T21:15:16.096Z,8.02
2023-05-14T21:17:42.988Z,10.00
2023-05-14T21:20:12.028Z,9.10
2023-05-14T21:22:39.019Z,12.40
2023-05-14T21:25:06.292Z,14.43
2023-05-14T21:27:33.414Z,20.13
2023-05-14T21:30:00.348Z,11.90
2023-05-14T21:32:27.697Z,14.30
2023-05-14T21:34:54.754Z,11.50
2023-05-14T21:37:22.483Z,15.10
2023-05-14T21:39:49.455Z,13.30
2023-05-14T21:42:16.621Z,15.73
2023-05-14T21:44:43.522Z,7.93
2023-05-14T21:47:13.414Z,13.00
2023-05-14T21:49:40.319Z,14.40
2023-05-14T21:52:07.530Z,17.52
2023-05-14T21:54:34.365Z,17.40
2023-05-14T21:57:01.794Z,14.82
2023-05-14T21:59:28.814Z,15.55
2023-05-14T22:02:06.798Z,15.73
2023-05-14T22:04:35.437Z,14.75
2023-05-14T22:07:03.225Z,11.82
2023-05-14T22:09:30.460Z,17.50
2023-05-14T22:11:58.358Z,17.60
2023-05-14T22:14:27.005Z,13.98
2023-05-14T22:16:54.191Z,14.02
2023-05-14T22:19:21.319Z,19.60
2023-05-14T22:21:48.403Z,14.20
2023-05-14T22:24:17.108Z,14.82
2023-05-14T22:26:44.294Z,14.35
2023-05-14T22:29:11.375Z,19.45
2023-05-14T22:31:38.626Z,13.93
2023-05-14T22:34:05.817Z,14.27
2023-05-14T22:36:32.819Z,18.17
2023-05-14T22:38:59.780Z,15.13
2023-05-14T22:41:29.783Z,20.75
2023-05-14T22:43:56.774Z,17.08
2023-05-14T22:46:23.795Z,22.52
2023-05-14T22:48:50.738Z,25.38
2023-05-14T22:51:18.016Z,17.10
2023-05-14T22:53:45.610Z,18.45
2023-05-14T22:56:12.503Z,20.45
2023-05-14T22:58:39.457Z,20.67
2023-05-14T23:01:06.622Z,26.20
2023-05-14T23:03:33.478Z,18.65
2023-05-14T23:06:00.506Z,17.63
2023-05-14T23:08:27.462Z,17.15
2023-05-14T23:10:54.419Z,18.02
2023-05-14T23:13:21.428Z,19.30
2023-05-14T23:15:48.876Z,19.58
2023-05-14T23:18:16.066Z,19.67
2023-05-14T23:20:43.124Z,22.95
2023-05-14T23:23:10.071Z,22.33
2023-05-14T23:25:37.103Z,20.60
2023-05-14T23:28:04.088Z,30.33
2023-05-14T23:30:30.865Z,20.05
2023-05-14T23:32:57.720Z,21.00
2023-05-14T23:35:25.014Z,18.25
2023-05-14T23:37:52.399Z,22.02
2023-05-14T23:40:19.358Z,22.88
2023-05-14T23:42:46.642Z,24.45
2023-05-14T23:45:14.027Z,22.90
2023-05-14T23:48:00.873Z,22.15
2023-05-14T23:50:27.935Z,24.60
2023-05-14T23:52:55.920Z,14.93
2023-05-14T23:55:23.513Z,22.25
2023-05-14T23:57:50.641Z,25.13
